sensor_id;sensor_type;location;lat;lon;timestamp;P1;durP1;ratioP1;P2;durP2;ratioP2
13933;SDS011;7039;52.168;9.866;2022-07-24T00:01:18;2.13;;;1.60;;
13933;SDS011;7039;52.168;9.866;2022-07-24T00:03:47;1.60;;;1.50;;
13933;SDS011;7039;52.168;9.866;2022-07-24T06:17:43;3.50;;;2.60;;
13933;SDS011;7039;52.168;9.866;2022-07-24T06:20:10;4.70;;;2.20;;
13933;SDS011;7039;52.168;9.866;2022-07-24T06:25:15;2.60;;;2.40;;
13933;SDS011;7039;52.168;9.866;2022-07-24T06:28:05;4.77;;;2.37;;
13933;SDS011;7039;52.168;9.866;2022-07-24T06:36:31;3.00;;;2.47;;
13933;SDS011;7039;52.168;9.866;2022-07-24T06:39:02;5.07;;;1.97;;
13933;SDS011;7039;52.168;9.866;2022-07-24T06:42:06;5.77;;;2.33;;
13933;SDS011;7039;52.168;9.866;2022-07-24T06:44:32;2.73;;;2.00;;
13933;SDS011;7039;52.168;9.866;2022-07-24T06:47:01;2.83;;;2.13;;
13933;SDS011;7039;52.168;9.866;2022-07-24T06:49:28;2.30;;;2.10;;
13933;SDS011;7039;52.168;9.866;2022-07-24T06:51:56;6.07;;;1.93;;
13933;SDS011;7039;52.168;9.866;2022-07-24T06:54:22;3.33;;;1.77;;
13933;SDS011;7039;52.168;9.866;2022-07-24T06:56:51;2.30;;;2.10;;
13933;SDS011;7039;52.168;9.866;2022-07-24T06:59:54;2.17;;;1.73;;
13933;SDS011;7039;52.168;9.866;2022-07-24T07:02:21;3.83;;;2.20;;
13933;SDS011;7039;52.168;9.866;2022-07-24T07:04:48;1.90;;;1.70;;
13933;SDS011;7039;52.168;9.866;2022-07-24T07:07:17;4.37;;;1.90;;
13933;SDS011;7039;52.168;9.866;2022-07-24T07:12:44;3.37;;;2.00;;
13933;SDS011;7039;52.168;9.866;2022-07-24T07:19:10;6.30;;;1.70;;
13933;SDS011;7039;52.168;9.866;2022-07-24T07:21:37;2.10;;;1.90;;
13933;SDS011;7039;52.168;9.866;2022-07-24T07:27:41;2.60;;;1.87;;
13933;SDS011;7039;52.168;9.866;2022-07-24T07:30:08;5.67;;;2.20;;
13933;SDS011;7039;52.168;9.866;2022-07-24T07:39:23;4.43;;;2.53;;
13933;SDS011;7039;52.168;9.866;2022-07-24T07:42:26;6.20;;;2.37;;
13933;SDS011;7039;52.168;9.866;2022-07-24T07:44:54;6.20;;;2.23;;
13933;SDS011;7039;52.168;9.866;2022-07-24T07:47:21;2.87;;;2.03;;
13933;SDS011;7039;52.168;9.866;2022-07-24T07:49:51;2.77;;;1.90;;
13933;SDS011;7039;52.168;9.866;2022-07-24T07:52:18;4.37;;;2.10;;
13933;SDS011;7039;52.168;9.866;2022-07-24T07:54:44;2.93;;;2.23;;
13933;SDS011;7039;52.168;9.866;2022-07-24T07:57:15;3.43;;;1.97;;
13933;SDS011;7039;52.168;9.866;2022-07-24T07:59:41;3.93;;;2.60;;
13933;SDS011;7039;52.168;9.866;2022-07-24T08:08:49;3.67;;;2.23;;
13933;SDS011;7039;52.168;9.866;2022-07-24T08:11:25;6.27;;;2.40;;
13933;SDS011;7039;52.168;9.866;2022-07-24T08:14:32;3.50;;;2.07;;
13933;SDS011;7039;52.168;9.866;2022-07-24T08:16:58;6.93;;;3.00;;
13933;SDS011;7039;52.168;9.866;2022-07-24T08:19:25;4.70;;;3.00;;
13933;SDS011;7039;52.168;9.866;2022-07-24T08:21:52;2.80;;;2.50;;
13933;SDS011;7039;52.168;9.866;2022-07-24T08:24:20;2.93;;;2.63;;
13933;SDS011;7039;52.168;9.866;2022-07-24T08:26:46;5.67;;;2.60;;
13933;SDS011;7039;52.168;9.866;2022-07-24T08:29:13;3.43;;;2.60;;
13933;SDS011;7039;52.168;9.866;2022-07-24T08:31:40;4.03;;;2.53;;
13933;SDS011;7039;52.168;9.866;2022-07-24T08:34:06;3.03;;;2.80;;
13933;SDS011;7039;52.168;9.866;2022-07-24T08:36:33;5.43;;;2.70;;
13933;SDS011;7039;52.168;9.866;2022-07-24T08:38:59;3.30;;;3.00;;
13933;SDS011;7039;52.168;9.866;2022-07-24T08:41:28;4.10;;;2.90;;
13933;SDS011;7039;52.168;9.866;2022-07-24T08:43:57;3.63;;;2.80;;
13933;SDS011;7039;52.168;9.866;2022-07-24T08:46:24;2.90;;;2.60;;
13933;SDS011;7039;52.168;9.866;2022-07-24T08:48:53;3.00;;;2.67;;
13933;SDS011;7039;52.168;9.866;2022-07-24T08:51:19;4.67;;;3.00;;
13933;SDS011;7039;52.168;9.866;2022-07-24T08:53:47;7.87;;;3.50;;
13933;SDS011;7039;52.168;9.866;2022-07-24T08:56:14;6.80;;;3.47;;
13933;SDS011;7039;52.168;9.866;2022-07-24T08:58:43;3.13;;;2.67;;
13933;SDS011;7039;52.168;9.866;2022-07-24T09:01:10;6.27;;;3.47;;
13933;SDS011;7039;52.168;9.866;2022-07-24T09:03:37;4.13;;;2.90;;
13933;SDS011;7039;52.168;9.866;2022-07-24T09:06:05;4.63;;;2.93;;
13933;SDS011;7039;52.168;9.866;2022-07-24T09:08:33;4.50;;;3.10;;
13933;SDS011;7039;52.168;9.866;2022-07-24T09:11:01;5.70;;;3.30;;
13933;SDS011;7039;52.168;9.866;2022-07-24T09:13:29;4.80;;;3.40;;
13933;SDS011;7039;52.168;9.866;2022-07-24T09:16:18;4.17;;;3.33;;
13933;SDS011;7039;52.168;9.866;2022-07-24T09:18:47;5.47;;;3.07;;
13933;SDS011;7039;52.168;9.866;2022-07-24T09:21:15;4.00;;;3.07;;
13933;SDS011;7039;52.168;9.866;2022-07-24T09:23:43;4.90;;;3.70;;
13933;SDS011;7039;52.168;9.866;2022-07-24T09:26:10;5.50;;;3.60;;
13933;SDS011;7039;52.168;9.866;2022-07-24T09:28:47;4.47;;;3.57;;
13933;SDS011;7039;52.168;9.866;2022-07-24T09:31:15;4.37;;;3.23;;
13933;SDS011;7039;52.168;9.866;2022-07-24T09:33:42;3.93;;;3.37;;
13933;SDS011;7039;52.168;9.866;2022-07-24T09:36:12;5.37;;;3.20;;
13933;SDS011;7039;52.168;9.866;2022-07-24T09:38:43;3.87;;;3.40;;
13933;SDS011;7039;52.168;9.866;2022-07-24T09:41:12;6.40;;;3.93;;
13933;SDS011;7039;52.168;9.866;2022-07-24T09:43:46;4.50;;;3.40;;
13933;SDS011;7039;52.168;9.866;2022-07-24T09:46:23;4.40;;;3.10;;
13933;SDS011;7039;52.168;9.866;2022-07-24T09:48:53;5.17;;;3.67;;
13933;SDS011;7039;52.168;9.866;2022-07-24T09:51:22;5.97;;;3.63;;
13933;SDS011;7039;52.168;9.866;2022-07-24T09:53:52;6.00;;;4.10;;
13933;SDS011;7039;52.168;9.866;2022-07-24T09:56:21;5.77;;;3.40;;
13933;SDS011;7039;52.168;9.866;2022-07-24T09:58:49;6.17;;;3.33;;
13933;SDS011;7039;52.168;9.866;2022-07-24T10:01:17;4.33;;;3.63;;
13933;SDS011;7039;52.168;9.866;2022-07-24T10:03:46;5.40;;;4.90;;
13933;SDS011;7039;52.168;9.866;2022-07-24T10:06:16;7.47;;;3.87;;
13933;SDS011;7039;52.168;9.866;2022-07-24T10:08:44;4.28;;;3.75;;
13933;SDS011;7039;52.168;9.866;2022-07-24T10:11:14;6.15;;;4.05;;
13933;SDS011;7039;52.168;9.866;2022-07-24T10:13:41;3.83;;;3.38;;
13933;SDS011;7039;52.168;9.866;2022-07-24T10:16:15;4.20;;;3.80;;
13933;SDS011;7039;52.168;9.866;2022-07-24T10:18:54;4.32;;;3.88;;
13933;SDS011;7039;52.168;9.866;2022-07-24T10:21:24;5.80;;;4.00;;
13933;SDS011;7039;52.168;9.866;2022-07-24T10:23:58;5.28;;;4.18;;
13933;SDS011;7039;52.168;9.866;2022-07-24T10:26:37;14.20;;;4.70;;
13933;SDS011;7039;52.168;9.866;2022-07-24T10:29:07;5.78;;;5.07;;
13933;SDS011;7039;52.168;9.866;2022-07-24T10:31:36;7.32;;;5.20;;
13933;SDS011;7039;52.168;9.866;2022-07-24T10:34:03;5.22;;;4.40;;
13933;SDS011;7039;52.168;9.866;2022-07-24T10:36:39;4.70;;;4.10;;
13933;SDS011;7039;52.168;9.866;2022-07-24T10:39:12;5.60;;;4.00;;
13933;SDS011;7039;52.168;9.866;2022-07-24T10:41:44;4.72;;;4.30;;
13933;SDS011;7039;52.168;9.866;2022-07-24T10:44:26;4.10;;;3.80;;
13933;SDS011;7039;52.168;9.866;2022-07-24T10:46:56;7.40;;;3.75;;
13933;SDS011;7039;52.168;9.866;2022-07-24T10:52:24;4.60;;;3.88;;
13933;SDS011;7039;52.168;9.866;2022-07-24T10:57:47;14.82;;;4.63;;
13933;SDS011;7039;52.168;9.866;2022-07-24T11:00:21;9.35;;;4.65;;
13933;SDS011;7039;52.168;9.866;2022-07-24T11:02:54;5.30;;;4.55;;
13933;SDS011;7039;52.168;9.866;2022-07-24T11:05:22;7.72;;;5.50;;
13933;SDS011;7039;52.168;9.866;2022-07-24T11:10:56;7.22;;;4.93;;
13933;SDS011;7039;52.168;9.866;2022-07-24T11:13:45;7.20;;;4.75;;
13933;SDS011;7039;52.168;9.866;2022-07-24T11:16:19;7.75;;;5.00;;
13933;SDS011;7039;52.168;9.866;2022-07-24T11:22:06;7.13;;;5.43;;
13933;SDS011;7039;52.168;9.866;2022-07-24T11:24:35;8.00;;;4.82;;
13933;SDS011;7039;52.168;9.866;2022-07-24T11:27:07;6.90;;;4.93;;
13933;SDS011;7039;52.168;9.866;2022-07-24T11:29:41;5.05;;;4.55;;
13933;SDS011;7039;52.168;9.866;2022-07-24T11:32:08;6.05;;;5.03;;
13933;SDS011;7039;52.168;9.866;2022-07-24T11:34:42;6.18;;;5.38;;
13933;SDS011;7039;52.168;9.866;2022-07-24T11:37:10;5.82;;;4.72;;
13933;SDS011;7039;52.168;9.866;2022-07-24T11:39:40;5.47;;;4.55;;
13933;SDS011;7039;52.168;9.866;2022-07-24T11:42:09;7.15;;;4.55;;
13933;SDS011;7039;52.168;9.866;2022-07-24T11:44:37;9.32;;;4.95;;
13933;SDS011;7039;52.168;9.866;2022-07-24T11:47:06;9.65;;;5.20;;
13933;SDS011;7039;52.168;9.866;2022-07-24T11:49:43;11.27;;;4.95;;
13933;SDS011;7039;52.168;9.866;2022-07-24T11:52:14;9.20;;;5.20;;
13933;SDS011;7039;52.168;9.866;2022-07-24T11:54:44;7.43;;;4.88;;
13933;SDS011;7039;52.168;9.866;2022-07-24T11:57:15;9.45;;;4.50;;
13933;SDS011;7039;52.168;9.866;2022-07-24T11:59:46;5.53;;;4.97;;
13933;SDS011;7039;52.168;9.866;2022-07-24T12:02:14;7.50;;;4.35;;
13933;SDS011;7039;52.168;9.866;2022-07-24T12:04:42;5.25;;;4.38;;
13933;SDS011;7039;52.168;9.866;2022-07-24T12:07:10;5.90;;;4.70;;
13933;SDS011;7039;52.168;9.866;2022-07-24T12:09:49;5.43;;;4.70;;
13933;SDS011;7039;52.168;9.866;2022-07-24T12:12:18;6.57;;;4.70;;
13933;SDS011;7039;52.168;9.866;2022-07-24T12:14:45;5.20;;;4.70;;
13933;SDS011;7039;52.168;9.866;2022-07-24T12:17:12;8.90;;;4.72;;
13933;SDS011;7039;52.168;9.866;2022-07-24T12:19:38;5.35;;;4.75;;
13933;SDS011;7039;52.168;9.866;2022-07-24T12:22:05;4.95;;;4.55;;
13933;SDS011;7039;52.168;9.866;2022-07-24T12:24:31;6.55;;;4.95;;
13933;SDS011;7039;52.168;9.866;2022-07-24T12:27:00;8.80;;;5.70;;
13933;SDS011;7039;52.168;9.866;2022-07-24T12:29:26;6.90;;;4.97;;
13933;SDS011;7039;52.168;9.866;2022-07-24T12:31:54;5.53;;;5.00;;
13933;SDS011;7039;52.168;9.866;2022-07-24T12:34:42;7.05;;;4.60;;
13933;SDS011;7039;52.168;9.866;2022-07-24T12:37:15;5.40;;;4.90;;
13933;SDS011;7039;52.168;9.866;2022-07-24T12:39:46;5.65;;;5.15;;
13933;SDS011;7039;52.168;9.866;2022-07-24T12:42:14;6.43;;;4.85;;
13933;SDS011;7039;52.168;9.866;2022-07-24T12:44:41;6.53;;;5.00;;
13933;SDS011;7039;52.168;9.866;2022-07-24T12:47:09;6.18;;;5.13;;
13933;SDS011;7039;52.168;9.866;2022-07-24T12:49:40;5.90;;;5.10;;
13933;SDS011;7039;52.168;9.866;2022-07-24T12:52:18;4.80;;;4.40;;
13933;SDS011;7039;52.168;9.866;2022-07-24T12:54:45;8.30;;;4.72;;
13933;SDS011;7039;52.168;9.866;2022-07-24T12:57:12;6.72;;;4.25;;
13933;SDS011;7039;52.168;9.866;2022-07-24T12:59:41;7.72;;;5.00;;
13933;SDS011;7039;52.168;9.866;2022-07-24T13:02:09;5.10;;;4.65;;
13933;SDS011;7039;52.168;9.866;2022-07-24T13:04:40;7.65;;;4.72;;
13933;SDS011;7039;52.168;9.866;2022-07-24T13:07:08;8.13;;;5.40;;
13933;SDS011;7039;52.168;9.866;2022-07-24T13:09:35;7.25;;;5.32;;
13933;SDS011;7039;52.168;9.866;2022-07-24T13:12:02;5.40;;;4.90;;
13933;SDS011;7039;52.168;9.866;2022-07-24T13:14:32;4.75;;;4.32;;
13933;SDS011;7039;52.168;9.866;2022-07-24T13:17:03;5.05;;;4.60;;
13933;SDS011;7039;52.168;9.866;2022-07-24T13:19:33;6.68;;;4.70;;
13933;SDS011;7039;52.168;9.866;2022-07-24T13:22:00;5.22;;;4.43;;
13933;SDS011;7039;52.168;9.866;2022-07-24T13:24:26;6.55;;;4.60;;
13933;SDS011;7039;52.168;9.866;2022-07-24T13:26:55;5.50;;;4.60;;
13933;SDS011;7039;52.168;9.866;2022-07-24T13:29:22;4.93;;;4.43;;
13933;SDS011;7039;52.168;9.866;2022-07-24T13:31:50;7.45;;;4.78;;
13933;SDS011;7039;52.168;9.866;2022-07-24T13:34:17;5.00;;;4.50;;
13933;SDS011;7039;52.168;9.866;2022-07-24T13:36:43;4.95;;;4.38;;
13933;SDS011;7039;52.168;9.866;2022-07-24T13:39:11;5.93;;;4.57;;
13933;SDS011;7039;52.168;9.866;2022-07-24T13:41:38;5.78;;;4.15;;
13933;SDS011;7039;52.168;9.866;2022-07-24T13:44:05;6.32;;;4.30;;
13933;SDS011;7039;52.168;9.866;2022-07-24T13:46:32;4.97;;;4.28;;
13933;SDS011;7039;52.168;9.866;2022-07-24T13:49:02;4.95;;;4.43;;
13933;SDS011;7039;52.168;9.866;2022-07-24T13:51:31;4.88;;;4.38;;
13933;SDS011;7039;52.168;9.866;2022-07-24T13:53:57;4.57;;;4.18;;
13933;SDS011;7039;52.168;9.866;2022-07-24T13:56:24;4.60;;;4.20;;
13933;SDS011;7039;52.168;9.866;2022-07-24T13:58:52;4.50;;;4.10;;
13933;SDS011;7039;52.168;9.866;2022-07-24T14:01:18;5.05;;;4.53;;
13933;SDS011;7039;52.168;9.866;2022-07-24T14:03:46;5.95;;;4.60;;
13933;SDS011;7039;52.168;9.866;2022-07-24T14:06:14;4.28;;;3.97;;
13933;SDS011;7039;52.168;9.866;2022-07-24T14:08:41;4.60;;;4.20;;
13933;SDS011;7039;52.168;9.866;2022-07-24T14:11:08;4.68;;;4.28;;
13933;SDS011;7039;52.168;9.866;2022-07-24T14:13:35;7.40;;;4.25;;
13933;SDS011;7039;52.168;9.866;2022-07-24T14:16:02;5.13;;;4.10;;
13933;SDS011;7039;52.168;9.866;2022-07-24T14:18:29;4.88;;;4.35;;
13933;SDS011;7039;52.168;9.866;2022-07-24T14:20:56;5.40;;;4.60;;
13933;SDS011;7039;52.168;9.866;2022-07-24T14:23:24;4.72;;;4.30;;
13933;SDS011;7039;52.168;9.866;2022-07-24T14:25:51;6.25;;;4.68;;
13933;SDS011;7039;52.168;9.866;2022-07-24T14:28:17;6.38;;;4.07;;
13933;SDS011;7039;52.168;9.866;2022-07-24T14:30:44;4.90;;;4.50;;
13933;SDS011;7039;52.168;9.866;2022-07-24T14:33:11;4.70;;;4.30;;
13933;SDS011;7039;52.168;9.866;2022-07-24T14:35:38;6.70;;;4.32;;
13933;SDS011;7039;52.168;9.866;2022-07-24T14:38:04;5.95;;;4.05;;
13933;SDS011;7039;52.168;9.866;2022-07-24T14:40:32;6.03;;;4.38;;
13933;SDS011;7039;52.168;9.866;2022-07-24T14:42:59;4.75;;;4.35;;
13933;SDS011;7039;52.168;9.866;2022-07-24T14:45:25;4.45;;;4.07;;
13933;SDS011;7039;52.168;9.866;2022-07-24T14:47:52;4.95;;;4.55;;
13933;SDS011;7039;52.168;9.866;2022-07-24T14:50:18;5.38;;;4.47;;
13933;SDS011;7039;52.168;9.866;2022-07-24T14:52:45;6.70;;;4.70;;
13933;SDS011;7039;52.168;9.866;2022-07-24T14:55:12;5.20;;;4.25;;
13933;SDS011;7039;52.168;9.866;2022-07-24T14:57:40;4.50;;;4.10;;
13933;SDS011;7039;52.168;9.866;2022-07-24T15:00:07;7.15;;;4.30;;
13933;SDS011;7039;52.168;9.866;2022-07-24T15:02:34;8.20;;;4.32;;
13933;SDS011;7039;52.168;9.866;2022-07-24T15:05:01;8.00;;;4.65;;
13933;SDS011;7039;52.168;9.866;2022-07-24T15:07:27;5.05;;;4.53;;
13933;SDS011;7039;52.168;9.866;2022-07-24T15:09:54;4.97;;;4.32;;
13933;SDS011;7039;52.168;9.866;2022-07-24T15:12:20;6.70;;;5.03;;
13933;SDS011;7039;52.168;9.866;2022-07-24T15:14:49;4.60;;;4.20;;
13933;SDS011;7039;52.168;9.866;2022-07-24T15:17:15;7.63;;;4.00;;
13933;SDS011;7039;52.168;9.866;2022-07-24T15:19:42;7.65;;;4.53;;
13933;SDS011;7039;52.168;9.866;2022-07-24T15:22:08;5.30;;;4.28;;
13933;SDS011;7039;52.168;9.866;2022-07-24T15:24:35;4.95;;;4.43;;
13933;SDS011;7039;52.168;9.866;2022-07-24T15:27:01;7.50;;;4.60;;
13933;SDS011;7039;52.168;9.866;2022-07-24T15:29:28;6.13;;;4.63;;
13933;SDS011;7039;52.168;9.866;2022-07-24T15:31:56;6.22;;;5.15;;
13933;SDS011;7039;52.168;9.866;2022-07-24T15:34:23;4.53;;;4.13;;
13933;SDS011;7039;52.168;9.866;2022-07-24T15:36:50;7.85;;;4.70;;
13933;SDS011;7039;52.168;9.866;2022-07-24T15:39:16;5.07;;;4.53;;
13933;SDS011;7039;52.168;9.866;2022-07-24T15:41:43;5.97;;;4.30;;
13933;SDS011;7039;52.168;9.866;2022-07-24T15:44:09;6.72;;;5.10;;
13933;SDS011;7039;52.168;9.866;2022-07-24T15:46:36;6.18;;;4.80;;
13933;SDS011;7039;52.168;9.866;2022-07-24T15:49:04;5.10;;;4.70;;
13933;SDS011;7039;52.168;9.866;2022-07-24T15:51:34;5.28;;;4.47;;
13933;SDS011;7039;52.168;9.866;2022-07-24T15:54:01;4.80;;;4.38;;
13933;SDS011;7039;52.168;9.866;2022-07-24T15:56:28;5.30;;;4.57;;
13933;SDS011;7039;52.168;9.866;2022-07-24T15:58:54;6.85;;;4.40;;
13933;SDS011;7039;52.168;9.866;2022-07-24T16:01:21;4.90;;;4.47;;
13933;SDS011;7039;52.168;9.866;2022-07-24T16:03:48;5.18;;;4.50;;
13933;SDS011;7039;52.168;9.866;2022-07-24T16:06:16;4.93;;;4.43;;
13933;SDS011;7039;52.168;9.866;2022-07-24T16:08:42;5.25;;;4.75;;
13933;SDS011;7039;52.168;9.866;2022-07-24T16:11:09;8.10;;;4.32;;
13933;SDS011;7039;52.168;9.866;2022-07-24T16:13:35;5.40;;;4.90;;
13933;SDS011;7039;52.168;9.866;2022-07-24T16:16:02;5.18;;;4.78;;
13933;SDS011;7039;52.168;9.866;2022-07-24T16:18:28;9.70;;;5.15;;
13933;SDS011;7039;52.168;9.866;2022-07-24T16:20:55;5.45;;;4.95;;
13933;SDS011;7039;52.168;9.866;2022-07-24T16:23:23;5.25;;;4.32;;
13933;SDS011;7039;52.168;9.866;2022-07-24T16:25:50;5.05;;;4.65;;
13933;SDS011;7039;52.168;9.866;2022-07-24T16:28:16;10.05;;;4.88;;
13933;SDS011;7039;52.168;9.866;2022-07-24T16:30:43;5.78;;;4.80;;
13933;SDS011;7039;52.168;9.866;2022-07-24T16:33:09;6.32;;;5.40;;
13933;SDS011;7039;52.168;9.866;2022-07-24T16:35:36;5.60;;;5.00;;
13933;SDS011;7039;52.168;9.866;2022-07-24T16:38:02;7.80;;;4.90;;
13933;SDS011;7039;52.168;9.866;2022-07-24T16:40:30;6.43;;;5.03;;
13933;SDS011;7039;52.168;9.866;2022-07-24T16:42:57;5.93;;;5.30;;
13933;SDS011;7039;52.168;9.866;2022-07-24T16:45:23;5.65;;;5.15;;
13933;SDS011;7039;52.168;9.866;2022-07-24T16:47:50;5.90;;;5.38;;
13933;SDS011;7039;52.168;9.866;2022-07-24T16:50:16;5.57;;;5.07;;
13933;SDS011;7039;52.168;9.866;2022-07-24T16:52:43;8.30;;;5.95;;
13933;SDS011;7039;52.168;9.866;2022-07-24T16:55:09;6.80;;;5.50;;
13933;SDS011;7039;52.168;9.866;2022-07-24T16:57:37;5.85;;;5.32;;
13933;SDS011;7039;52.168;9.866;2022-07-24T17:00:05;5.95;;;4.80;;
13933;SDS011;7039;52.168;9.866;2022-07-24T17:02:36;6.30;;;5.15;;
13933;SDS011;7039;52.168;9.866;2022-07-24T17:05:03;5.18;;;4.68;;
13933;SDS011;7039;52.168;9.866;2022-07-24T17:07:30;5.85;;;5.07;;
13933;SDS011;7039;52.168;9.866;2022-07-24T17:09:56;6.35;;;5.47;;
13933;SDS011;7039;52.168;9.866;2022-07-24T17:12:23;5.97;;;5.38;;
13933;SDS011;7039;52.168;9.866;2022-07-24T17:14:52;6.00;;;5.15;;
13933;SDS011;7039;52.168;9.866;2022-07-24T17:17:18;6.50;;;5.45;;
13933;SDS011;7039;52.168;9.866;2022-07-24T17:19:45;6.38;;;5.65;;
13933;SDS011;7039;52.168;9.866;2022-07-24T17:22:15;6.97;;;5.28;;
13933;SDS011;7039;52.168;9.866;2022-07-24T17:24:43;6.72;;;5.57;;
13933;SDS011;7039;52.168;9.866;2022-07-24T17:27:10;7.38;;;5.05;;
13933;SDS011;7039;52.168;9.866;2022-07-24T17:29:36;6.68;;;6.07;;
13933;SDS011;7039;52.168;9.866;2022-07-24T17:32:04;11.68;;;5.40;;
13933;SDS011;7039;52.168;9.866;2022-07-24T17:34:31;6.20;;;5.65;;
13933;SDS011;7039;52.168;9.866;2022-07-24T17:36:58;6.05;;;5.07;;
13933;SDS011;7039;52.168;9.866;2022-07-24T17:39:24;5.78;;;5.22;;
13933;SDS011;7039;52.168;9.866;2022-07-24T17:41:51;7.22;;;4.75;;
13933;SDS011;7039;52.168;9.866;2022-07-24T17:44:17;5.97;;;5.47;;
13933;SDS011;7039;52.168;9.866;2022-07-24T17:46:44;10.23;;;5.78;;
13933;SDS011;7039;52.168;9.866;2022-07-24T17:49:12;7.30;;;5.78;;
13933;SDS011;7039;52.168;9.866;2022-07-24T17:51:38;10.35;;;5.40;;
13933;SDS011;7039;52.168;9.866;2022-07-24T17:54:05;6.07;;;5.55;;
13933;SDS011;7039;52.168;9.866;2022-07-24T17:56:31;6.80;;;5.05;;
13933;SDS011;7039;52.168;9.866;2022-07-24T17:58:57;6.25;;;5.00;;
13933;SDS011;7039;52.168;9.866;2022-07-24T18:01:24;5.80;;;5.35;;
13933;SDS011;7039;52.168;9.866;2022-07-24T18:03:51;6.20;;;5.20;;
13933;SDS011;7039;52.168;9.866;2022-07-24T18:06:19;8.20;;;5.55;;
13933;SDS011;7039;52.168;9.866;2022-07-24T18:08:45;5.35;;;4.85;;
13933;SDS011;7039;52.168;9.866;2022-07-24T18:11:12;5.57;;;5.15;;
13933;SDS011;7039;52.168;9.866;2022-07-24T18:13:38;8.45;;;5.32;;
13933;SDS011;7039;52.168;9.866;2022-07-24T18:16:05;5.55;;;5.05;;
13933;SDS011;7039;52.168;9.866;2022-07-24T18:18:31;6.63;;;5.13;;
13933;SDS011;7039;52.168;9.866;2022-07-24T18:20:58;6.60;;;5.50;;
13933;SDS011;7039;52.168;9.866;2022-07-24T18:23:26;7.22;;;5.35;;
13933;SDS011;7039;52.168;9.866;2022-07-24T18:25:52;7.75;;;5.57;;
13933;SDS011;7039;52.168;9.866;2022-07-24T18:28:19;5.88;;;5.35;;
13933;SDS011;7039;52.168;9.866;2022-07-24T18:30:45;6.55;;;5.68;;
13933;SDS011;7039;52.168;9.866;2022-07-24T18:33:12;7.38;;;5.78;;
13933;SDS011;7039;52.168;9.866;2022-07-24T18:35:39;7.15;;;5.30;;
13933;SDS011;7039;52.168;9.866;2022-07-24T18:38:05;6.05;;;5.55;;
13933;SDS011;7039;52.168;9.866;2022-07-24T18:40:35;9.02;;;5.32;;
13933;SDS011;7039;52.168;9.866;2022-07-24T18:43:02;5.85;;;5.38;;
13933;SDS011;7039;52.168;9.866;2022-07-24T18:45:28;6.40;;;5.80;;
13933;SDS011;7039;52.168;9.866;2022-07-24T18:47:55;7.15;;;6.35;;
13933;SDS011;7039;52.168;9.866;2022-07-24T18:50:21;8.02;;;6.50;;
13933;SDS011;7039;52.168;9.866;2022-07-24T18:52:48;10.45;;;6.50;;
13933;SDS011;7039;52.168;9.866;2022-07-24T18:55:14;8.60;;;5.75;;
13933;SDS011;7039;52.168;9.866;2022-07-24T18:57:42;7.00;;;6.05;;
13933;SDS011;7039;52.168;9.866;2022-07-24T19:00:09;7.15;;;5.68;;
13933;SDS011;7039;52.168;9.866;2022-07-24T19:02:36;10.70;;;6.32;;
13933;SDS011;7039;52.168;9.866;2022-07-24T19:05:03;10.07;;;6.10;;
13933;SDS011;7039;52.168;9.866;2022-07-24T19:07:31;11.75;;;6.38;;
13933;SDS011;7039;52.168;9.866;2022-07-24T19:09:58;10.82;;;6.43;;
13933;SDS011;7039;52.168;9.866;2022-07-24T19:12:24;18.27;;;7.18;;
13933;SDS011;7039;52.168;9.866;2022-07-24T19:14:52;23.08;;;7.43;;
13933;SDS011;7039;52.168;9.866;2022-07-24T19:17:19;13.65;;;7.03;;
13933;SDS011;7039;52.168;9.866;2022-07-24T19:19:45;18.02;;;7.03;;
13933;SDS011;7039;52.168;9.866;2022-07-24T19:22:12;24.20;;;7.40;;
13933;SDS011;7039;52.168;9.866;2022-07-24T19:24:38;19.48;;;7.05;;
13933;SDS011;7039;52.168;9.866;2022-07-24T19:27:05;14.27;;;7.38;;
13933;SDS011;7039;52.168;9.866;2022-07-24T19:29:31;17.27;;;7.30;;
13933;SDS011;7039;52.168;9.866;2022-07-24T19:31:59;15.07;;;6.63;;
13933;SDS011;7039;52.168;9.866;2022-07-24T19:34:26;11.57;;;6.72;;
13933;SDS011;7039;52.168;9.866;2022-07-24T19:36:53;13.93;;;7.90;;
13933;SDS011;7039;52.168;9.866;2022-07-24T19:39:19;13.52;;;6.85;;
13933;SDS011;7039;52.168;9.866;2022-07-24T19:41:46;11.65;;;6.88;;
13933;SDS011;7039;52.168;9.866;2022-07-24T19:44:13;10.13;;;6.90;;
13933;SDS011;7039;52.168;9.866;2022-07-24T19:46:40;17.67;;;7.55;;
13933;SDS011;7039;52.168;9.866;2022-07-24T19:49:09;13.90;;;6.93;;
13933;SDS011;7039;52.168;9.866;2022-07-24T19:51:35;9.18;;;6.72;;
13933;SDS011;7039;52.168;9.866;2022-07-24T19:54:02;12.60;;;6.88;;
13933;SDS011;7039;52.168;9.866;2022-07-24T19:56:29;10.88;;;6.72;;
13933;SDS011;7039;52.168;9.866;2022-07-24T19:58:55;16.77;;;6.90;;
13933;SDS011;7039;52.168;9.866;2022-07-24T20:01:22;17.10;;;7.25;;
13933;SDS011;7039;52.168;9.866;2022-07-24T20:03:48;12.73;;;6.83;;
13933;SDS011;7039;52.168;9.866;2022-07-24T20:06:16;8.43;;;6.82;;
13933;SDS011;7039;52.168;9.866;2022-07-24T20:08:42;8.77;;;6.97;;
13933;SDS011;7039;52.168;9.866;2022-07-24T20:11:09;15.63;;;7.68;;
13933;SDS011;7039;52.168;9.866;2022-07-24T20:13:36;10.63;;;7.00;;
13933;SDS011;7039;52.168;9.866;2022-07-24T20:16:02;9.75;;;6.55;;
13933;SDS011;7039;52.168;9.866;2022-07-24T20:18:29;7.87;;;6.27;;
13933;SDS011;7039;52.168;9.866;2022-07-24T20:20:56;10.03;;;7.07;;
13933;SDS011;7039;52.168;9.866;2022-07-24T20:23:24;12.05;;;6.88;;
13933;SDS011;7039;52.168;9.866;2022-07-24T20:25:50;8.03;;;6.70;;
13933;SDS011;7039;52.168;9.866;2022-07-24T20:28:16;12.73;;;6.78;;
13933;SDS011;7039;52.168;9.866;2022-07-24T20:30:43;10.43;;;6.70;;
13933;SDS011;7039;52.168;9.866;2022-07-24T20:33:09;13.30;;;6.47;;
13933;SDS011;7039;52.168;9.866;2022-07-24T20:35:36;13.13;;;6.77;;
13933;SDS011;7039;52.168;9.866;2022-07-24T20:38:03;11.83;;;6.83;;
13933;SDS011;7039;52.168;9.866;2022-07-24T20:40:30;9.33;;;7.13;;
13933;SDS011;7039;52.168;9.866;2022-07-24T20:42:57;10.47;;;7.03;;
13933;SDS011;7039;52.168;9.866;2022-07-24T20:45:23;8.00;;;6.53;;
13933;SDS011;7039;52.168;9.866;2022-07-24T20:47:50;10.67;;;6.70;;
13933;SDS011;7039;52.168;9.866;2022-07-24T20:50:16;15.00;;;7.20;;
13933;SDS011;7039;52.168;9.866;2022-07-24T20:52:43;8.90;;;6.20;;
13933;SDS011;7039;52.168;9.866;2022-07-24T20:55:09;9.30;;;6.83;;
13933;SDS011;7039;52.168;9.866;2022-07-24T20:57:37;12.30;;;6.73;;
13933;SDS011;7039;52.168;9.866;2022-07-24T21:00:04;9.93;;;6.87;;
13933;SDS011;7039;52.168;9.866;2022-07-24T21:02:31;10.87;;;6.70;;
13933;SDS011;7039;52.168;9.866;2022-07-24T21:04:58;10.77;;;7.03;;
13933;SDS011;7039;52.168;9.866;2022-07-24T21:07:24;12.07;;;6.87;;
13933;SDS011;7039;52.168;9.866;2022-07-24T21:09:51;10.17;;;6.30;;
13933;SDS011;7039;52.168;9.866;2022-07-24T21:12:17;11.07;;;6.07;;
13933;SDS011;7039;52.168;9.866;2022-07-24T21:14:45;11.10;;;6.50;;
13933;SDS011;7039;52.168;9.866;2022-07-24T21:17:12;15.60;;;6.47;;
13933;SDS011;7039;52.168;9.866;2022-07-24T21:19:38;11.30;;;6.90;;
13933;SDS011;7039;52.168;9.866;2022-07-24T21:22:05;9.27;;;6.47;;
13933;SDS011;7039;52.168;9.866;2022-07-24T21:24:31;11.20;;;6.67;;
13933;SDS011;7039;52.168;9.866;2022-07-24T21:26:58;11.07;;;6.47;;
13933;SDS011;7039;52.168;9.866;2022-07-24T21:29:24;13.27;;;6.00;;
13933;SDS011;7039;52.168;9.866;2022-07-24T21:31:52;7.23;;;6.27;;
13933;SDS011;7039;52.168;9.866;2022-07-24T21:34:18;12.37;;;5.80;;
13933;SDS011;7039;52.168;9.866;2022-07-24T21:36:45;8.00;;;6.03;;
13933;SDS011;7039;52.168;9.866;2022-07-24T21:39:11;8.80;;;5.83;;
13933;SDS011;7039;52.168;9.866;2022-07-24T21:41:38;10.10;;;6.30;;
13933;SDS011;7039;52.168;9.866;2022-07-24T21:44:05;11.77;;;6.33;;
13933;SDS011;7039;52.168;9.866;2022-07-24T21:46:32;7.80;;;6.57;;
13933;SDS011;7039;52.168;9.866;2022-07-24T21:49:00;11.90;;;6.53;;
13933;SDS011;7039;52.168;9.866;2022-07-24T21:51:26;11.67;;;6.63;;
13933;SDS011;7039;52.168;9.866;2022-07-24T21:53:52;16.43;;;7.00;;
13933;SDS011;7039;52.168;9.866;2022-07-24T21:56:19;13.50;;;6.53;;
13933;SDS011;7039;52.168;9.866;2022-07-24T21:58:46;11.67;;;6.17;;
13933;SDS011;7039;52.168;9.866;2022-07-24T22:01:12;33.33;;;7.60;;